Time;durP1;ratioP1;P1;durP2;ratioP2;P2;SDS_P1;SDS_P2;PMS_P1;PMS_P2;Temp;Humidity;BMP_temperature;BMP_pressure;BME280_temperature;BME280_humidity;BME280_pressure;Samples;Min_cycle;Max_cycle;Signal;HPM_P1;HPM_P2
2023/03/17 00:01:50;;;;;;;2.30;2.10;;;19.40;48.30;;;;;;5008388;28;20199;-70
2023/03/17 00:04:20;;;;;;;2.00;1.70;;;19.40;48.30;;;;;;5028362;28;20199;-70
2023/03/17 00:06:46;;;;;;;1.73;1.63;;;19.40;48.30;;;;;;5031287;28;20222;-70
2023/03/17 00:09:15;;;;;;;2.83;1.85;;;19.40;48.30;;;;;;5014236;28;20187;-70
2023/03/17 00:11:42;;;;;;;1.50;1.40;;;19.40;48.30;;;;;;5016176;28;20214;-70
2023/03/17 00:14:08;;;;;;;2.25;1.70;;;19.40;48.30;;;;;;5015078;28;20180;-71
2023/03/17 00:16:40;;;;;;;1.92;1.80;;;19.40;48.40;;;;;;4995231;28;20199;-70
2023/03/17 00:19:06;;;;;;;1.92;1.77;;;19.40;48.30;;;;;;4994776;28;20192;-70
2023/03/17 00:21:34;;;;;;;1.80;1.70;;;19.40;48.30;;;;;;4994829;28;20203;-70
2023/03/17 00:24:00;;;;;;;2.03;1.80;;;19.40;48.40;;;;;;4994931;28;20188;-70
2023/03/17 00:26:27;;;;;;;1.70;1.45;;;19.40;48.30;;;;;;4994541;28;20279;-70
2023/03/17 00:28:54;;;;;;;1.60;1.50;;;19.40;48.90;;;;;;4994715;28;20250;-70
2023/03/17 00:31:24;;;;;;;1.88;1.77;;;19.40;48.30;;;;;;5004168;28;20207;-70
2023/03/17 00:33:53;;;;;;;2.10;1.90;;;19.40;48.90;;;;;;5017101;28;20270;-70
2023/03/17 00:36:28;;;;;;;1.85;1.67;;;19.40;48.30;;;;;;4994761;28;20195;-70
2023/03/17 00:38:54;;;;;;;2.50;1.92;;;19.40;48.40;;;;;;4994407;28;20183;-70
2023/03/17 00:41:21;;;;;;;1.90;1.77;;;19.40;48.40;;;;;;4994468;28;20227;-70
2023/03/17 00:43:48;;;;;;;2.05;1.85;;;19.40;48.30;;;;;;4999674;28;20182;-70
2023/03/17 00:46:34;;;;;;;2.00;1.90;;;19.40;48.30;;;;;;5014139;28;20215;-70
2023/03/17 00:49:17;;;;;;;1.75;1.65;;;19.40;48.30;;;;;;5014019;28;20189;-70
2023/03/17 00:51:44;;;;;;;1.98;1.77;;;19.40;48.30;;;;;;5030259;28;20207;-70
2023/03/17 00:54:11;;;;;;;2.30;1.90;;;19.40;48.40;;;;;;5030429;28;20317;-70
2023/03/17 00:56:39;;;;;;;2.35;1.95;;;19.30;48.20;;;;;;5014193;28;20202;-70
2023/03/17 00:59:24;;;;;;;2.25;1.70;;;19.40;48.40;;;;;;5013846;28;20251;-70
2023/03/17 01:01:50;;;;;;;2.13;1.90;;;19.30;48.30;;;;;;5017115;28;20302;-70
2023/03/17 01:04:17;;;;;;;2.10;1.88;;;19.30;48.20;;;;;;4994173;28;20193;-71
2023/03/17 01:06:43;;;;;;;2.20;2.00;;;19.30;48.30;;;;;;5004726;28;20298;-70
2023/03/17 01:09:14;;;;;;;1.98;1.88;;;19.40;48.40;;;;;;5013851;28;20618;-70
2023/03/17 01:11:41;;;;;;;1.85;1.75;;;19.40;48.40;;;;;;5022276;28;20206;-70
2023/03/17 01:14:10;;;;;;;2.47;2.20;;;19.40;48.40;;;;;;5014098;28;20290;-70
2023/03/17 01:16:37;;;;;;;1.70;1.60;;;19.40;48.40;;;;;;5030275;28;20285;-71
2023/03/17 01:19:04;;;;;;;1.55;1.45;;;19.30;48.30;;;;;;5013790;28;20191;-70
2023/03/17 01:21:30;;;;;;;1.70;1.60;;;19.40;48.40;;;;;;5019493;28;20211;-70
2023/03/17 01:23:56;;;;;;;1.80;1.70;;;19.30;48.30;;;;;;5012494;28;20190;-70
2023/03/17 01:26:23;;;;;;;2.17;1.67;;;19.40;48.40;;;;;;5024262;28;20203;-71
2023/03/17 01:28:50;;;;;;;2.00;1.60;;;19.30;48.30;;;;;;5011560;28;20728;-70
2023/03/17 01:31:16;;;;;;;2.25;1.75;;;19.30;48.30;;;;;;5033273;28;20211;-70
2023/03/17 01:33:41;;;;;;;1.80;1.70;;;19.30;48.30;;;;;;5010489;28;20232;-70
2023/03/17 01:36:09;;;;;;;2.17;1.70;;;19.40;48.40;;;;;;5017511;28;20194;-70
2023/03/17 01:38:36;;;;;;;1.92;1.80;;;19.30;48.30;;;;;;5022110;28;20192;-70
2023/03/17 01:41:02;;;;;;;1.95;1.80;;;19.40;48.40;;;;;;5012813;28;20195;-70
2023/03/17 01:43:29;;;;;;;1.65;1.55;;;19.30;48.30;;;;;;5025919;28;20186;-70
2023/03/17 01:46:16;;;;;;;1.85;1.75;;;19.30;48.30;;;;;;5017320;28;20219;-70
2023/03/17 01:49:11;;;;;;;1.63;1.52;;;19.40;48.40;;;;;;5026392;28;20195;-70
2023/03/17 01:52:18;;;;;;;2.00;1.90;;;19.30;48.30;;;;;;5017302;28;20203;-70
2023/03/17 01:55:03;;;;;;;1.67;1.58;;;19.30;48.30;;;;;;5017347;28;20183;-71
2023/03/17 01:57:35;;;;;;;1.95;1.48;;;19.30;48.30;;;;;;5031131;28;20316;-70
2023/03/17 02:00:10;;;;;;;1.80;1.70;;;19.30;48.30;;;;;;5012999;28;20195;-70
2023/03/17 02:02:50;;;;;;;1.95;1.85;;;19.30;48.30;;;;;;5024784;28;20318;-71
2023/03/17 02:05:22;;;;;;;2.10;1.92;;;19.30;48.30;;;;;;5005984;28;20269;-71
2023/03/17 02:07:53;;;;;;;2.20;2.00;;;19.30;48.30;;;;;;5022566;28;20206;-70
2023/03/17 02:10:27;;;;;;;1.67;1.58;;;19.30;48.30;;;;;;5014707;28;20266;-70
2023/03/17 02:12:58;;;;;;;2.47;1.80;;;19.30;48.30;;;;;;4997482;28;20211;-71
2023/03/17 02:15:47;;;;;;;1.70;1.60;;;19.30;48.40;;;;;;5013469;28;20215;-70
2023/03/17 02:18:16;;;;;;;1.85;1.60;;;19.30;48.30;;;;;;4997566;28;20231;-71
2023/03/17 02:20:47;;;;;;;1.58;1.48;;;19.30;48.30;;;;;;5016891;28;20191;-70
2023/03/17 02:23:23;;;;;;;2.50;1.85;;;19.30;48.40;;;;;;5016428;28;20191;-70
2023/03/17 02:25:51;;;;;;;1.92;1.83;;;19.30;48.40;;;;;;4997168;28;20215;-70
2023/03/17 02:28:28;;;;;;;2.08;1.88;;;19.30;48.40;;;;;;4996779;28;20196;-70
2023/03/17 02:30:54;;;;;;;2.22;2.10;;;19.30;48.30;;;;;;5011060;28;20194;-70
2023/03/17 02:33:20;;;;;;;2.55;2.35;;;19.30;48.40;;;;;;5014932;28;20180;-70
2023/03/17 02:35:46;;;;;;;2.50;2.30;;;19.30;48.50;;;;;;4996526;28;20192;-70
2023/03/17 02:38:16;;;;;;;2.85;2.25;;;19.30;48.40;;;;;;4997101;28;20198;-70
2023/03/17 02:40:42;;;;;;;2.10;2.00;;;19.30;48.30;;;;;;4996868;28;20199;-71
2023/03/17 02:43:07;;;;;;;1.92;1.83;;;19.30;48.40;;;;;;4996627;28;20230;-70
2023/03/17 02:45:33;;;;;;;1.90;1.80;;;19.30;48.30;;;;;;4996760;28;20238;-70
2023/03/17 02:48:00;;;;;;;2.08;1.88;;;19.30;48.30;;;;;;4996622;28;20287;-70
2023/03/17 02:50:28;;;;;;;2.20;1.80;;;19.30;48.30;;;;;;5012921;28;20191;-70
2023/03/17 02:52:53;;;;;;;1.88;1.70;;;19.30;48.30;;;;;;5010266;28;20214;-70
2023/03/17 02:55:19;;;;;;;2.20;2.00;;;19.30;48.30;;;;;;5031277;28;20210;-70
2023/03/17 02:57:45;;;;;;;4.22;2.10;;;19.30;48.40;;;;;;4996444;28;20307;-70
2023/03/17 03:00:13;;;;;;;2.00;1.80;;;19.30;48.30;;;;;;5012884;28;20195;-70
2023/03/17 03:02:39;;;;;;;2.17;2.00;;;19.30;48.40;;;;;;5015851;28;20245;-71
2023/03/17 03:05:07;;;;;;;2.35;2.00;;;19.30;48.40;;;;;;5016485;28;20302;-70
2023/03/17 03:07:34;;;;;;;2.10;2.00;;;19.30;48.30;;;;;;4996023;28;20176;-70
2023/03/17 03:10:01;;;;;;;2.90;2.08;;;19.30;48.40;;;;;;4996423;28;20196;-70
2023/03/17 03:12:27;;;;;;;2.67;1.77;;;19.20;48.30;;;;;;4997279;28;20777;-70
2023/03/17 03:14:53;;;;;;;2.42;2.22;;;19.30;48.40;;;;;;5024122;28;20187;-70
2023/03/17 03:17:20;;;;;;;1.98;1.88;;;19.30;48.40;;;;;;4995937;28;20184;-70
2023/03/17 03:19:47;;;;;;;2.10;1.90;;;19.20;48.20;;;;;;4996246;28;20267;-70
2023/03/17 03:22:13;;;;;;;2.35;2.15;;;19.20;48.30;;;;;;4995839;28;20210;-70
2023/03/17 03:24:39;;;;;;;2.05;1.95;;;19.30;48.40;;;;;;4996101;28;20203;-70
2023/03/17 03:27:06;;;;;;;2.30;2.00;;;19.20;48.30;;;;;;5011886;28;20211;-72
2023/03/17 03:29:31;;;;;;;2.42;2.22;;;19.20;48.30;;;;;;5023474;28;20190;-71
2023/03/17 03:31:57;;;;;;;2.40;2.20;;;19.30;48.40;;;;;;5015613;28;20203;-70
2023/03/17 03:34:23;;;;;;;2.10;1.90;;;19.20;48.30;;;;;;5015176;28;20188;-70
2023/03/17 03:36:49;;;;;;;2.08;1.98;;;19.20;48.30;;;;;;5015363;28;20188;-70
2023/03/17 03:39:15;;;;;;;2.05;1.95;;;19.20;48.20;;;;;;5031499;28;20231;-70
2023/03/17 03:41:41;;;;;;;2.78;2.30;;;19.20;48.20;;;;;;5061143;22;20225;-71
2023/03/17 03:44:06;;;;;;;2.17;1.98;;;19.30;48.40;;;;;;5068942;28;20201;-70
2023/03/17 03:46:32;;;;;;;2.10;1.90;;;19.20;48.30;;;;;;5052404;28;20198;-70
2023/03/17 03:48:58;;;;;;;1.90;1.80;;;19.20;48.20;;;;;;5052152;28;20179;-70
2023/03/17 03:51:24;;;;;;;2.20;2.00;;;19.20;48.20;;;;;;5053520;28;20210;-70
2023/03/17 03:53:49;;;;;;;2.05;1.85;;;19.20;48.30;;;;;;5053173;28;20174;-71
2023/03/17 03:56:15;;;;;;;1.92;1.83;;;19.20;48.20;;;;;;5052726;28;20544;-71
2023/03/17 03:58:41;;;;;;;2.55;2.20;;;19.20;48.30;;;;;;5052587;28;20178;-70
2023/03/17 04:01:08;;;;;;;1.98;1.88;;;19.20;48.30;;;;;;5054032;28;20182;-70
2023/03/17 04:03:36;;;;;;;2.13;1.92;;;19.20;48.30;;;;;;5052360;28;20202;-70
2023/03/17 04:06:02;;;;;;;2.20;2.00;;;19.20;48.30;;;;;;5052556;28;20240;-70
2023/03/17 04:08:30;;;;;;;2.10;1.90;;;19.20;48.20;;;;;;5052155;28;20178;-70
2023/03/17 04:10:57;;;;;;;2.58;2.38;;;19.20;48.30;;;;;;5040754;28;20232;-71
2023/03/17 04:13:23;;;;;;;2.45;2.25;;;19.20;48.30;;;;;;5052007;28;20202;-71
2023/03/17 04:15:48;;;;;;;2.50;2.33;;;19.20;48.30;;;;;;5050618;28;20190;-70
2023/03/17 04:18:15;;;;;;;1.70;1.60;;;19.20;48.30;;;;;;5043847;28;20234;-70
2023/03/17 04:20:41;;;;;;;2.03;1.83;;;19.20;48.30;;;;;;5052229;28;20553;-70
2023/03/17 04:23:07;;;;;;;2.55;2.28;;;19.20;48.30;;;;;;5035694;28;20269;-70
2023/03/17 04:25:32;;;;;;;2.45;2.25;;;19.20;48.30;;;;;;5043987;28;20693;-70
2023/03/17 04:27:58;;;;;;;2.60;2.40;;;19.20;48.30;;;;;;5052945;28;20323;-70
2023/03/17 04:30:25;;;;;;;2.30;2.10;;;19.20;48.30;;;;;;5035458;28;20653;-70
2023/03/17 04:32:51;;;;;;;2.28;2.08;;;19.20;48.30;;;;;;5053290;28;20194;-70
2023/03/17 04:35:21;;;;;;;2.00;1.80;;;19.20;48.30;;;;;;5051491;28;20657;-70
2023/03/17 04:37:47;;;;;;;2.10;2.00;;;19.20;48.20;;;;;;5052063;28;20209;-70
2023/03/17 04:40:15;;;;;;;2.00;1.80;;;19.20;48.30;;;;;;5052976;28;20186;-70
2023/03/17 04:42:41;;;;;;;2.50;2.30;;;19.20;48.30;;;;;;5047460;28;20298;-70
2023/03/17 04:45:10;;;;;;;2.53;1.90;;;19.20;48.30;;;;;;5047531;28;20209;-70
2023/03/17 04:47:37;;;;;;;2.25;2.05;;;19.20;48.30;;;;;;5043443;28;20175;-70
2023/03/17 04:50:06;;;;;;;2.30;2.10;;;19.20;48.30;;;;;;5051539;28;20174;-70
2023/03/17 04:52:33;;;;;;;2.17;1.95;;;19.20;48.30;;;;;;5051766;28;20198;-70
2023/03/17 04:54:58;;;;;;;2.25;2.05;;;19.20;48.30;;;;;;5052256;28;20178;-70
2023/03/17 04:57:24;;;;;;;2.30;2.10;;;19.20;48.30;;;;;;5034159;28;20174;-70
2023/03/17 04:59:50;;;;;;;2.33;2.13;;;19.20;48.20;;;;;;5051993;28;20699;-70
2023/03/17 05:02:17;;;;;;;2.13;1.98;;;19.20;48.30;;;;;;5051547;28;20210;-70
2023/03/17 05:04:44;;;;;;;2.35;2.15;;;19.20;48.30;;;;;;5051400;28;20190;-70
2023/03/17 05:07:11;;;;;;;3.00;2.40;;;19.20;48.20;;;;;;5043874;28;20190;-70
2023/03/17 05:09:37;;;;;;;2.60;2.40;;;19.20;48.30;;;;;;5044051;28;20206;-70
2023/03/17 05:12:03;;;;;;;2.42;2.22;;;19.20;48.30;;;;;;5051063;28;20293;-70
2023/03/17 05:14:29;;;;;;;2.40;2.20;;;19.20;48.30;;;;;;5034574;28;20240;-70
2023/03/17 05:16:55;;;;;;;2.85;2.35;;;19.20;48.30;;;;;;5051097;28;20209;-70
2023/03/17 05:19:21;;;;;;;2.40;2.20;;;19.20;48.30;;;;;;5051252;28;20182;-70
2023/03/17 05:21:47;;;;;;;2.40;2.20;;;19.20;48.30;;;;;;5050822;28;20218;-70
2023/03/17 05:24:12;;;;;;;2.58;2.35;;;19.20;48.30;;;;;;5034359;28;20182;-71
2023/03/17 05:26:39;;;;;;;2.28;2.08;;;19.20;48.20;;;;;;5051406;28;20198;-71
2023/03/17 05:29:06;;;;;;;2.20;2.00;;;19.20;48.30;;;;;;5051348;28;20193;-70
2023/03/17 05:31:31;;;;;;;2.28;2.08;;;19.20;48.20;;;;;;5051491;28;20182;-70
2023/03/17 05:33:57;;;;;;;2.30;2.08;;;19.20;48.30;;;;;;5051425;28;20182;-69
2023/03/17 05:36:23;;;;;;;2.58;2.38;;;19.20;48.20;;;;;;5034963;28;20182;-71
2023/03/17 05:38:49;;;;;;;2.40;2.20;;;19.20;48.20;;;;;;5051217;28;20182;-70
2023/03/17 05:41:15;;;;;;;1.80;1.70;;;19.20;48.20;;;;;;5034981;28;20235;-70
2023/03/17 05:43:41;;;;;;;2.60;2.40;;;19.20;48.20;;;;;;5047167;28;20224;-73
2023/03/17 05:46:08;;;;;;;2.28;2.10;;;19.20;48.20;;;;;;5047366;28;20206;-70
2023/03/17 05:48:34;;;;;;;2.10;1.95;;;19.20;48.20;;;;;;5034820;28;20262;-71
2023/03/17 05:51:00;;;;;;;2.40;2.08;;;19.20;48.20;;;;;;5035428;28;20324;-71
2023/03/17 05:53:27;;;;;;;1.80;1.70;;;19.20;48.20;;;;;;5051547;28;20202;-71
2023/03/17 05:55:53;;;;;;;2.30;2.10;;;19.20;48.20;;;;;;5051955;28;20182;-71
2023/03/17 05:58:19;;;;;;;2.22;2.03;;;19.20;48.20;;;;;;5067393;28;20190;-72
2023/03/17 06:00:46;;;;;;;2.47;2.28;;;19.20;48.20;;;;;;5034216;28;20232;-72
2023/03/17 06:03:12;;;;;;;2.45;2.25;;;19.20;48.20;;;;;;5033583;28;20215;-72
2023/03/17 06:05:39;;;;;;;2.75;2.50;;;19.20;48.30;;;;;;5050351;28;20198;-72
2023/03/17 06:08:05;;;;;;;2.03;1.90;;;19.20;48.20;;;;;;5047219;28;20204;-72
2023/03/17 06:10:32;;;;;;;2.33;2.10;;;19.20;48.20;;;;;;5053051;28;20266;-73
2023/03/17 06:12:59;;;;;;;2.42;2.22;;;19.20;48.20;;;;;;5054457;28;20213;-72
2023/03/17 06:15:25;;;;;;;2.47;2.28;;;19.20;48.20;;;;;;5054335;28;20235;-72
2023/03/17 06:17:51;;;;;;;2.15;2.05;;;19.20;48.20;;;;;;5055282;28;20182;-72
2023/03/17 06:20:18;;;;;;;2.08;1.98;;;19.20;48.20;;;;;;5071568;28;20191;-72
2023/03/17 06:22:44;;;;;;;1.92;1.83;;;19.20;48.20;;;;;;5053318;28;20312;-71
2023/03/17 06:25:11;;;;;;;2.30;2.10;;;19.20;48.20;;;;;;5037300;28;20293;-71
2023/03/17 06:27:38;;;;;;;2.50;2.30;;;19.20;48.20;;;;;;5058942;28;20190;-72
2023/03/17 06:30:10;;;;;;;2.35;2.15;;;19.20;48.20;;;;;;5065891;28;20182;-71
2023/03/17 06:32:36;;;;;;;2.75;2.55;;;19.20;48.20;;;;;;5053352;28;20198;-72
2023/03/17 06:35:04;;;;;;;2.85;2.40;;;19.30;48.90;;;;;;5053582;28;20179;-71
2023/03/17 06:37:30;;;;;;;2.33;2.00;;;19.30;48.30;;;;;;5053466;28;20228;-71
2023/03/17 06:39:57;;;;;;;2.67;2.42;;;19.30;48.20;;;;;;5053494;28;20186;-70
2023/03/17 06:42:23;;;;;;;2.35;2.15;;;19.30;48.30;;;;;;5050693;28;20215;-71
2023/03/17 06:44:51;;;;;;;3.92;2.33;;;19.30;48.20;;;;;;5034403;28;20181;-70
2023/03/17 06:47:18;;;;;;;2.30;2.10;;;19.30;48.20;;;;;;5036663;28;20190;-71
2023/03/17 06:49:45;;;;;;;2.65;2.45;;;19.30;48.20;;;;;;5034350;28;20232;-71
2023/03/17 06:52:12;;;;;;;2.70;2.50;;;19.30;48.20;;;;;;5049062;28;20202;-70
2023/03/17 06:54:38;;;;;;;2.70;2.50;;;19.30;48.20;;;;;;5037996;28;20209;-70
2023/03/17 06:57:04;;;;;;;2.90;2.70;;;19.30;48.10;;;;;;5048321;28;20198;-70
2023/03/17 06:59:30;;;;;;;3.42;2.45;;;19.40;48.10;;;;;;5052479;28;20197;-71
2023/03/17 07:01:56;;;;;;;3.05;2.75;;;19.40;48.10;;;;;;5033478;28;20218;-71
2023/03/17 07:04:22;;;;;;;3.15;2.80;;;19.50;48.20;;;;;;5050022;28;20572;-71
2023/03/17 07:06:48;;;;;;;3.97;3.10;;;19.40;48.00;;;;;;5039476;28;20215;-70
2023/03/17 07:09:15;;;;;;;2.90;2.70;;;19.50;48.00;;;;;;5051741;28;20190;-71
2023/03/17 07:11:41;;;;;;;3.42;2.78;;;19.50;48.00;;;;;;5051664;28;20211;-70
2023/03/17 07:14:07;;;;;;;3.65;3.03;;;19.50;48.00;;;;;;5050922;28;20277;-70
2023/03/17 07:16:33;;;;;;;3.45;2.88;;;19.50;47.90;;;;;;5045236;28;20193;-70
2023/03/17 07:19:00;;;;;;;3.72;3.10;;;19.50;47.90;;;;;;5058878;28;20194;-71
2023/03/17 07:21:26;;;;;;;3.33;3.03;;;19.60;48.00;;;;;;5032966;28;20277;-70
2023/03/17 07:23:52;;;;;;;4.75;2.97;;;19.60;48.00;;;;;;5035082;28;20273;-70
2023/03/17 07:26:18;;;;;;;3.50;3.20;;;19.60;47.90;;;;;;5040758;28;20301;-69
2023/03/17 07:28:44;;;;;;;3.63;3.33;;;19.60;48.00;;;;;;5044149;28;20213;-70
2023/03/17 07:31:12;;;;;;;3.88;3.00;;;19.60;48.00;;;;;;5051333;28;20183;-70
2023/03/17 07:33:39;;;;;;;4.47;3.38;;;19.60;48.00;;;;;;5032994;28;20186;-71
2023/03/17 07:36:07;;;;;;;3.50;3.10;;;19.60;47.90;;;;;;5051465;28;20194;-70
2023/03/17 07:38:34;;;;;;;4.78;3.28;;;19.60;47.90;;;;;;5050914;28;20186;-70
2023/03/17 07:40:59;;;;;;;2.80;2.60;;;19.60;47.90;;;;;;5051164;28;20623;-70
2023/03/17 07:43:25;;;;;;;2.72;2.53;;;19.60;47.90;;;;;;5045734;28;20223;-69
2023/03/17 07:45:51;;;;;;;3.05;2.75;;;19.60;47.90;;;;;;5051602;28;20283;-70
2023/03/17 07:48:18;;;;;;;3.47;2.60;;;19.60;47.90;;;;;;5052487;28;20190;-69
2023/03/17 07:50:44;;;;;;;3.72;2.85;;;19.70;47.90;;;;;;5035723;28;20179;-69
2023/03/17 07:53:12;;;;;;;3.00;2.75;;;19.70;48.00;;;;;;5043517;28;20211;-70
2023/03/17 07:55:38;;;;;;;3.28;2.97;;;19.70;48.00;;;;;;5026955;28;20186;-69
2023/03/17 07:58:05;;;;;;;2.80;2.60;;;19.70;48.00;;;;;;5035406;28;20281;-70
2023/03/17 08:00:31;;;;;;;2.60;2.40;;;19.70;47.90;;;;;;5035276;28;20201;-70
2023/03/17 08:02:57;;;;;;;2.88;2.50;;;19.70;47.90;;;;;;5068594;28;20202;-70
2023/03/17 08:05:23;;;;;;;3.00;2.30;;;19.70;47.90;;;;;;5034748;28;20222;-69
2023/03/17 08:07:49;;;;;;;2.80;2.53;;;19.80;48.00;;;;;;5051395;28;20183;-69
2023/03/17 08:10:15;;;;;;;2.58;2.38;;;19.80;48.00;;;;;;5035008;28;20186;-70
2023/03/17 08:12:42;;;;;;;2.60;2.40;;;19.80;47.90;;;;;;5034957;28;20734;-70
2023/03/17 08:15:10;;;;;;;2.50;2.30;;;19.80;48.00;;;;;;5048085;28;20194;-70
2023/03/17 08:17:36;;;;;;;2.90;2.38;;;19.80;48.00;;;;;;5050726;28;20190;-69
2023/03/17 08:20:03;;;;;;;4.65;2.65;;;19.80;48.00;;;;;;5051143;28;20186;-69
2023/03/17 08:22:29;;;;;;;2.33;2.13;;;19.80;47.90;;;;;;5034625;28;20581;-70
2023/03/17 08:24:55;;;;;;;2.50;2.30;;;19.80;48.00;;;;;;5034351;28;20282;-69
2023/03/17 08:27:21;;;;;;;2.92;2.15;;;19.80;48.00;;;;;;5034415;28;20190;-71
2023/03/17 08:29:48;;;;;;;2.95;2.30;;;19.80;48.00;;;;;;5034327;28;20205;-71
2023/03/17 08:32:14;;;;;;;2.28;2.08;;;19.80;48.00;;;;;;5050104;28;20218;-70
2023/03/17 08:34:40;;;;;;;4.72;2.58;;;19.90;48.00;;;;;;5042786;28;20179;-70
2023/03/17 08:37:06;;;;;;;2.70;1.95;;;19.80;48.00;;;;;;5050606;28;20218;-70
2023/03/17 08:39:32;;;;;;;2.30;2.10;;;19.80;48.00;;;;;;5042572;28;20217;-71
2023/03/17 08:41:58;;;;;;;2.30;2.10;;;19.90;48.10;;;;;;5050610;28;20214;-70
2023/03/17 08:44:24;;;;;;;3.17;2.00;;;19.90;48.10;;;;;;5035601;28;20240;-70
2023/03/17 08:46:50;;;;;;;2.70;2.30;;;19.80;48.00;;;;;;5048573;28;20214;-70
2023/03/17 08:49:17;;;;;;;2.65;1.95;;;19.80;48.00;;;;;;5050240;28;20179;-70
2023/03/17 08:51:43;;;;;;;2.05;1.85;;;19.90;48.10;;;;;;5034311;28;20213;-70
2023/03/17 08:54:10;;;;;;;2.10;1.90;;;19.90;48.10;;;;;;5034405;28;20190;-70
2023/03/17 08:56:38;;;;;;;2.22;2.03;;;19.90;48.10;;;;;;5046875;28;20180;-70
2023/03/17 08:59:06;;;;;;;2.30;2.10;;;19.90;48.10;;;;;;5046140;28;20186;-70
2023/03/17 09:01:33;;;;;;;2.60;2.20;;;19.90;48.10;;;;;;5042435;28;20209;-69
2023/03/17 09:03:59;;;;;;;2.20;1.98;;;19.90;48.20;;;;;;5033726;28;20184;-70
2023/03/17 09:06:26;;;;;;;2.08;1.80;;;19.90;48.10;;;;;;5034109;28;20218;-70
2023/03/17 09:08:54;;;;;;;2.35;1.80;;;19.90;48.10;;;;;;5035839;28;20677;-70
2023/03/17 09:11:25;;;;;;;2.03;1.90;;;19.90;48.20;;;;;;5033951;28;20178;-71
2023/03/17 09:13:51;;;;;;;2.28;2.08;;;19.90;48.10;;;;;;5050551;28;20234;-70
2023/03/17 09:16:18;;;;;;;1.75;1.58;;;19.90;48.10;;;;;;5033840;28;20200;-70
2023/03/17 09:18:45;;;;;;;2.10;1.90;;;19.90;48.10;;;;;;5033776;28;20273;-68
2023/03/17 09:21:13;;;;;;;2.08;1.63;;;19.90;48.10;;;;;;5067535;28;20198;-70
2023/03/17 09:23:40;;;;;;;1.90;1.60;;;19.90;48.20;;;;;;5033862;28;20178;-70
2023/03/17 09:26:06;;;;;;;2.55;1.88;;;19.90;48.20;;;;;;5050419;28;20214;-70
2023/03/17 09:28:32;;;;;;;2.10;1.65;;;19.90;48.10;;;;;;5041676;28;20273;-70
2023/03/17 09:31:05;;;;;;;1.70;1.60;;;19.90;48.00;;;;;;5050429;28;20190;-70
2023/03/17 09:33:30;;;;;;;1.77;1.67;;;19.90;48.10;;;;;;5033715;28;20293;-70
2023/03/17 09:35:57;;;;;;;2.10;1.73;;;19.90;48.20;;;;;;5033684;28;20347;-70
2023/03/17 09:38:26;;;;;;;3.30;1.73;;;19.90;48.10;;;;;;5033294;28;20198;-70
2023/03/17 09:41:13;;;;;;;2.78;1.65;;;19.90;48.10;;;;;;5050310;28;20569;-70
2023/03/17 09:43:57;;;;;;;1.88;1.60;;;19.90;48.20;;;;;;5072669;22;20252;-70
2023/03/17 09:46:35;;;;;;;2.50;1.60;;;19.90;48.20;;;;;;5053774;28;20221;-71
2023/03/17 09:49:10;;;;;;;1.42;1.33;;;19.90;48.20;;;;;;5053706;28;20190;-71
2023/03/17 09:51:38;;;;;;;3.58;1.48;;;19.90;48.10;;;;;;5069701;28;20185;-70
2023/03/17 09:54:17;;;;;;;1.58;1.48;;;19.90;48.10;;;;;;5026628;28;20200;-70
2023/03/17 09:56:53;;;;;;;1.60;1.50;;;19.90;48.00;;;;;;5022257;28;20195;-70
2023/03/17 09:59:33;;;;;;;1.80;1.55;;;19.90;48.00;;;;;;5031329;28;20251;-71
2023/03/17 10:01:59;;;;;;;1.77;1.40;;;19.90;48.10;;;;;;5027194;28;20215;-71
2023/03/17 10:04:26;;;;;;;2.33;1.45;;;19.90;48.20;;;;;;5039939;28;20187;-71
2023/03/17 10:07:03;;;;;;;4.03;1.55;;;19.90;48.20;;;;;;5009122;28;20196;-70
2023/03/17 10:09:39;;;;;;;1.65;1.52;;;19.90;48.30;;;;;;5034135;28;20175;-71
2023/03/17 10:12:35;;;;;;;1.35;1.25;;;19.90;48.10;;;;;;5035458;28;20207;-71
2023/03/17 10:15:24;;;;;;;2.60;1.50;;;19.90;48.10;;;;;;5017086;28;20227;-71
2023/03/17 10:17:52;;;;;;;1.75;1.65;;;19.90;48.00;;;;;;5033843;28;20194;-71
2023/03/17 10:20:25;;;;;;;1.40;1.30;;;19.90;48.10;;;;;;5045186;28;20202;-71
2023/03/17 10:23:05;;;;;;;1.42;1.30;;;19.90;48.20;;;;;;5023296;28;20215;-71
2023/03/17 10:25:35;;;;;;;3.35;1.60;;;19.90;48.30;;;;;;5047221;28;20207;-71
2023/03/17 10:28:28;;;;;;;1.48;1.38;;;20.00;48.40;;;;;;5025391;28;20187;-71
2023/03/17 10:31:10;;;;;;;1.67;1.30;;;19.90;48.40;;;;;;5023859;28;20221;-72
2023/03/17 10:33:37;;;;;;;2.10;1.65;;;19.90;48.10;;;;;;5008284;28;20199;-71
2023/03/17 10:36:10;;;;;;;1.50;1.40;;;20.00;48.10;;;;;;5024984;28;20197;-71
2023/03/17 10:38:36;;;;;;;1.52;1.42;;;20.00;48.10;;;;;;5040542;28;20202;-71
2023/03/17 10:41:12;;;;;;;1.30;1.20;;;20.00;48.10;;;;;;5016184;28;20184;-71
2023/03/17 10:43:49;;;;;;;1.30;1.20;;;20.00;48.10;;;;;;5024494;28;20309;-71
2023/03/17 10:46:23;;;;;;;1.30;1.20;;;20.00;48.30;;;;;;5024744;28;20235;-71
2023/03/17 10:49:16;;;;;;;1.50;1.40;;;20.00;48.40;;;;;;5032777;28;20183;-71
2023/03/17 10:51:45;;;;;;;1.50;1.40;;;20.00;48.10;;;;;;5033284;28;20223;-70
2023/03/17 10:54:19;;;;;;;2.40;1.30;;;20.00;48.10;;;;;;5032925;28;20215;-71
2023/03/17 10:56:50;;;;;;;1.38;1.20;;;20.00;48.10;;;;;;5028202;28;20180;-71
2023/03/17 10:59:28;;;;;;;1.35;1.25;;;20.00;48.10;;;;;;5029836;28;20183;-71
2023/03/17 11:02:00;;;;;;;1.27;1.10;;;20.00;48.10;;;;;;5033055;28;20265;-71
2023/03/17 11:04:36;;;;;;;1.92;1.50;;;20.00;48.10;;;;;;5032577;28;20214;-71
2023/03/17 11:07:09;;;;;;;1.30;1.20;;;20.00;48.40;;;;;;5016170;28;20254;-72
2023/03/17 11:09:36;;;;;;;2.28;1.20;;;20.00;48.30;;;;;;5032532;28;20197;-71
2023/03/17 11:12:25;;;;;;;1.40;1.27;;;20.00;48.30;;;;;;5025835;28;20213;-71
2023/03/17 11:14:58;;;;;;;1.60;1.50;;;20.00;48.40;;;;;;5032326;28;20216;-70
2023/03/17 11:17:53;;;;;;;3.55;1.55;;;20.00;48.20;;;;;;5041134;28;20198;-70
2023/03/17 11:20:44;;;;;;;1.67;1.50;;;20.00;48.10;;;;;;5029217;28;20564;-72
2023/03/17 11:23:45;;;;;;;3.78;2.60;;;20.00;48.10;;;;;;5021041;28;20208;-70
2023/03/17 11:26:49;;;;;;;5.10;3.30;;;20.00;48.50;;;;;;5024446;28;20293;-71
2023/03/17 11:30:08;;;;;;;10.77;6.85;;;20.00;48.30;;;;;;5029297;28;20225;-71
2023/03/17 11:32:40;;;;;;;15.65;11.23;;;20.00;48.00;;;;;;5032631;28;20414;-71
2023/03/17 11:35:44;;;;;;;21.25;14.07;;;20.10;48.20;;;;;;5024548;28;20179;-71
2023/03/17 11:38:16;;;;;;;26.52;17.13;;;20.10;48.60;;;;;;5016183;28;20201;-71
2023/03/17 11:41:07;;;;;;;26.75;17.85;;;20.00;48.60;;;;;;5032888;28;20210;-70
2023/03/17 11:44:00;;;;;;;33.42;21.95;;;20.00;48.40;;;;;;5024898;28;20221;-70
2023/03/17 11:46:54;;;;;;;34.38;21.63;;;20.10;48.20;;;;;;5031039;28;20291;-70
2023/03/17 11:49:33;;;;;;;38.67;24.80;;;20.00;48.10;;;;;;5031468;28;20183;-70
2023/03/17 11:52:40;;;;;;;39.53;25.85;;;20.10;48.80;;;;;;5031518;28;20293;-70
2023/03/17 11:55:22;;;;;;;46.40;30.67;;;20.10;48.40;;;;;;5002053;28;20198;-70
2023/03/17 11:58:01;;;;;;;42.85;28.75;;;20.10;48.20;;;;;;5020351;28;20191;-70
2023/03/17 12:00:41;;;;;;;46.58;29.67;;;20.10;48.20;;;;;;5024318;28;20223;-70
2023/03/17 12:03:37;;;;;;;45.28;29.70;;;20.10;48.20;;;;;;5054964;28;20207;-70
2023/03/17 12:06:12;;;;;;;52.10;34.20;;;20.10;48.60;;;;;;5024189;28;20214;-70
2023/03/17 12:08:51;;;;;;;51.83;34.60;;;20.10;48.60;;;;;;5052690;28;20249;-71
2023/03/17 12:11:27;;;;;;;51.78;35.92;;;20.10;48.30;;;;;;5055817;28;20183;-71
2023/03/17 12:14:05;;;;;;;54.38;35.10;;;20.10;48.20;;;;;;5014265;28;20199;-70
2023/03/17 12:16:40;;;;;;;50.85;34.35;;;20.10;48.20;;;;;;5021688;28;20369;-70
2023/03/17 12:19:32;;;;;;;54.90;36.20;;;20.10;48.20;;;;;;5032802;28;20194;-70
2023/03/17 12:22:12;;;;;;;71.40;47.80;;;20.10;48.20;;;;;;5036023;28;20206;-70
2023/03/17 12:24:52;;;;;;;64.72;43.15;;;20.10;48.60;;;;;;5013333;28;20195;-70
2023/03/17 12:27:31;;;;;;;65.18;42.60;;;20.10;48.60;;;;;;5027760;28;20199;-71
2023/03/17 12:30:16;;;;;;;68.65;46.50;;;20.10;48.50;;;;;;5019769;28;20185;-70
2023/03/17 12:33:10;;;;;;;58.35;40.10;;;20.10;48.40;;;;;;5024299;28;20277;-70
2023/03/17 12:35:39;;;;;;;65.45;44.47;;;20.10;48.20;;;;;;5021741;28;20183;-70
2023/03/17 12:38:34;;;;;;;67.38;46.10;;;20.10;48.30;;;;;;5038349;28;20610;-71
2023/03/17 12:41:20;;;;;;;68.75;47.22;;;20.10;48.70;;;;;;5026896;28;20194;-70
2023/03/17 12:44:24;;;;;;;67.80;46.80;;;20.10;48.60;;;;;;5024909;28;20206;-69
2023/03/17 12:47:26;;;;;;;65.25;44.20;;;20.10;48.50;;;;;;4972806;28;20277;-70
2023/03/17 12:50:21;;;;;;;71.90;48.65;;;20.10;48.30;;;;;;5025050;28;20190;-70
2023/03/17 12:53:10;;;;;;;76.15;50.70;;;20.10;48.70;;;;;;5038025;28;20214;-70
2023/03/17 12:55:37;;;;;;;68.20;47.00;;;20.10;48.80;;;;;;5027988;28;20190;-70
2023/03/17 12:58:20;;;;;;;76.38;51.03;;;20.10;48.40;;;;;;5031959;28;20203;-70
2023/03/17 13:00:56;;;;;;;67.57;45.80;;;20.10;48.40;;;;;;5051759;28;20241;-70
2023/03/17 13:03:26;;;;;;;71.10;48.80;;;20.10;48.20;;;;;;5030406;28;20214;-70
2023/03/17 13:06:01;;;;;;;73.15;48.90;;;20.10;48.20;;;;;;5038572;28;20203;-70